Sibay, Russia
Current Conditions -  °F | °C
As of 1:30 PM on Saturday 22 Nov 2014 (Local Time) from USCM Reporting Station
Overcast Overcast  
Wind Chill: 22°   Ceiling: 3300
Heat Index: 32°   Visibility: 6mi
Dew Point: 25°   Wind: 13mph
Humidity: 75%   Direction: 300°WNW
Pressure: 30.15"   Gusts: NA
Location:  52.7°N, 58.65°E
Report Text: USCM 220830Z 30006MPS 9999 OVC033 M00/M04 Q1021 NOSIG 01390140RMK QFE727
Loading
Personal Weather Stations






























Interactive Weather Map New forecast layout! Learn more

10-Day Weather Forecast

Advertisements
Track Severe Weather on mobile